Accueil
METAR-TAF:

METAR-TAF

Aéroports :

Diepholz, Allemagne

latitude: 52-35N, longitude: 008-21E, altitude: 39 m

Observation

Le bulletin a été fait il y a 14 minutes, à 05:20 UTC
Vent 3 kt de sud
Température 11°C
Humidité 94%
Pression 1007 hPa
Visibilité 10 km ou plus
Nuages épars à une hauteur de 3900 ft
Nuages fragmentés à une hauteur de 5000 ft

METAR: ETND 280520Z 19003KT 9999 SCT039 BKN050 11/10 Q1007 BLU BLU

Heure: 07:34 (05:34 UTC)

Prévision

Le bulletin a été fait il y a 1 heure et 22 minutes, à 04:12 UTC
Prévision valable du 28 à 05 UTC au 28 à 14 UTC
Vent 5 kt de sud/sud-ouest
Visibilité 10 km ou plus
Nuages fragmentés à une hauteur de 4000 ft
Probabilité 30%
du 28 à 05 UTC au 28 à 07 UTC
Vent 3 kt de direction variable
Visibilité: 4000 m
Nuages épars à une hauteur de 4000 ft
Brouillard mince

TAF: ETND 280412Z 2805/2814 20005KT 9999 NSW BKN040 PROB30 2805/2807 VRB03KT 4000 MIFG SCT040 BY ETGL

Observations et prévisions météorologiques de plus de 4000 aéroports (messages METAR et TAF).

Les stations disponibles sont représentées par des disques jaunes et rouges sur la carte.

Passer la souris dessus pour voir le nom de la station.

Cliquer dessus pour voir les observations et prévisions météorologiques.

Pour changer de carte: cliquez sur les boutons verts avec une croix noire pour zoomer, sur le bouton vert avec un tiret pour effectuer un zoom arrière, ou sur les flèches vertes pour les cartes adjacentes.


METAR-TAF: